Time;durP1;ratioP1;P1;durP2;ratioP2;P2;SDS_P1;SDS_P2;PMS_P1;PMS_P2;Temp;Humidity;BMP_temperature;BMP_pressure;BME280_temperature;BME280_humidity;BME280_pressure;Samples;Min_cycle;Max_cycle;Signal;HPM_P1;HPM_P2
2021/12/31 00:01:26;;;;;;;3.20;0.90;;;25.90;59.10;;;;;;4952385;28;20418;-73
2021/12/31 00:03:55;;;;;;;6.15;1.33;;;25.80;58.90;;;;;;4953604;29;20039;-73
2021/12/31 00:06:22;;;;;;;1.90;0.90;;;25.80;60.50;;;;;;4936867;29;20498;-73
2021/12/31 00:08:50;;;;;;;3.17;0.85;;;25.90;59.00;;;;;;4953722;29;20041;-73
2021/12/31 00:11:17;;;;;;;3.25;1.10;;;25.90;59.70;;;;;;4936770;29;20034;-73
2021/12/31 00:13:44;;;;;;;6.63;1.02;;;26.00;60.90;;;;;;4953889;29;20110;-73
2021/12/31 00:16:11;;;;;;;4.43;0.93;;;26.00;59.70;;;;;;4953669;29;20047;-73
2021/12/31 00:18:38;;;;;;;1.92;0.80;;;25.90;59.40;;;;;;4952461;29;20078;-73
2021/12/31 00:21:06;;;;;;;6.53;1.10;;;26.00;60.50;;;;;;4953897;29;20122;-73
2021/12/31 00:23:33;;;;;;;3.63;1.25;;;26.00;61.30;;;;;;4952782;29;20038;-72
2021/12/31 00:26:00;;;;;;;6.68;1.80;;;26.00;60.50;;;;;;4936776;29;20374;-72
2021/12/31 00:28:27;;;;;;;4.80;1.92;;;26.00;60.50;;;;;;4953655;29;20035;-73
2021/12/31 00:30:55;;;;;;;4.68;1.17;;;26.00;60.80;;;;;;4953353;29;20374;-73
2021/12/31 00:33:23;;;;;;;3.88;1.10;;;26.00;60.30;;;;;;4953275;29;20044;-73
2021/12/31 00:35:51;;;;;;;3.38;0.90;;;26.00;61.50;;;;;;4951947;29;20062;-73
2021/12/31 00:38:18;;;;;;;3.30;0.95;;;26.00;62.70;;;;;;4936198;29;20035;-73
2021/12/31 00:40:45;;;;;;;2.60;0.90;;;26.00;60.50;;;;;;4952972;29;20494;-73
2021/12/31 00:43:13;;;;;;;3.50;2.33;;;26.10;61.70;;;;;;4953067;29;20039;-73
2021/12/31 00:45:41;;;;;;;4.72;2.33;;;26.00;59.30;;;;;;4953135;29;20027;-73
2021/12/31 00:48:09;;;;;;;4.82;1.70;;;26.00;59.10;;;;;;4936420;29;20026;-72
2021/12/31 00:50:37;;;;;;;1.73;1.00;;;26.00;59.10;;;;;;4936137;29;20039;-73
2021/12/31 00:53:05;;;;;;;1.83;0.90;;;26.00;60.50;;;;;;4951596;29;20047;-72
2021/12/31 00:55:32;;;;;;;4.03;1.60;;;26.00;59.80;;;;;;4952092;29;20405;-73
2021/12/31 00:57:59;;;;;;;2.75;1.27;;;25.90;61.20;;;;;;4955124;28;20035;-73
2021/12/31 01:00:28;;;;;;;7.55;1.08;;;25.90;60.10;;;;;;4956033;29;20034;-72
2021/12/31 01:02:55;;;;;;;2.95;0.80;;;26.00;60.70;;;;;;4940148;29;20372;-72
2021/12/31 01:05:22;;;;;;;2.03;0.90;;;26.00;60.20;;;;;;4955664;28;20035;-72
2021/12/31 01:07:50;;;;;;;5.60;1.42;;;25.90;60.00;;;;;;4957040;29;20035;-72
2021/12/31 01:10:18;;;;;;;4.15;1.05;;;25.90;59.30;;;;;;4956760;29;20062;-72
2021/12/31 01:12:45;;;;;;;2.47;1.08;;;25.80;59.60;;;;;;4955785;29;20060;-72
2021/12/31 01:15:21;;;;;;;2.13;0.88;;;25.90;61.10;;;;;;4955841;29;20565;-73
2021/12/31 01:20:27;;;;;;;3.17;1.00;;;25.80;61.70;;;;;;4957191;29;20039;-72
2021/12/31 01:22:54;;;;;;;3.30;1.13;;;25.80;61.60;;;;;;4956634;29;20118;-69
2021/12/31 01:25:22;;;;;;;6.03;1.80;;;25.80;60.00;;;;;;4956625;29;20087;-69
2021/12/31 01:27:49;;;;;;;4.38;1.25;;;25.80;61.60;;;;;;4956600;29;20062;-69
2021/12/31 01:30:16;;;;;;;2.65;0.90;;;25.80;61.80;;;;;;4939436;29;20027;-69
2021/12/31 01:32:45;;;;;;;1.35;0.82;;;25.80;61.00;;;;;;4939265;29;20121;-70
2021/12/31 01:35:12;;;;;;;2.20;0.95;;;25.80;62.50;;;;;;4939625;29;20114;-69
2021/12/31 01:37:40;;;;;;;1.88;0.90;;;25.80;62.10;;;;;;4956419;29;20039;-69
2021/12/31 01:40:07;;;;;;;2.22;1.05;;;25.80;62.70;;;;;;4956381;29;20446;-68
2021/12/31 01:42:36;;;;;;;1.13;0.77;;;25.80;61.00;;;;;;4956183;29;20406;-69
2021/12/31 01:45:17;;;;;;;3.75;1.00;;;25.90;62.00;;;;;;4956430;29;20394;-68
2021/12/31 01:48:33;;;;;;;4.88;1.00;;;25.90;62.00;;;;;;4939657;29;20039;-68
2021/12/31 01:50:34;;;;;;;2.53;0.90;;;25.80;62.60;;;;;;4955646;29;20046;-69
2021/12/31 01:53:01;;;;;;;2.17;1.00;;;25.80;62.80;;;;;;4955941;29;20050;-69
2021/12/31 01:55:31;;;;;;;2.15;1.00;;;25.80;61.90;;;;;;4956210;29;20487;-68
2021/12/31 01:57:58;;;;;;;;;;;25.80;62.80;;;;;;4939304;29;20031;-70
2021/12/31 02:00:25;;;;;;;1.60;0.70;;;25.80;62.60;;;;;;4938907;29;19965;-71
2021/12/31 02:02:52;;;;;;;2.50;0.80;;;25.80;61.10;;;;;;4955592;28;20047;-71
2021/12/31 02:05:20;;;;;;;2.45;0.60;;;25.80;62.20;;;;;;4956306;29;20031;-69
2021/12/31 02:07:47;;;;;;;7.68;1.48;;;25.80;59.80;;;;;;4955909;29;20028;-70
2021/12/31 02:10:14;;;;;;;3.22;0.80;;;25.90;62.20;;;;;;4955996;28;20545;-70
2021/12/31 02:12:46;;;;;;;4.28;0.85;;;25.90;61.90;;;;;;4955879;28;20058;-70
2021/12/31 02:15:14;;;;;;;2.20;0.90;;;25.90;62.60;;;;;;4956421;28;20541;-70
2021/12/31 02:17:44;;;;;;;3.85;0.90;;;25.90;61.00;;;;;;4955779;29;20036;-70
2021/12/31 02:20:11;;;;;;;2.85;1.02;;;25.90;62.90;;;;;;4955532;29;20064;-70
2021/12/31 02:22:40;;;;;;;1.92;0.82;;;25.90;62.60;;;;;;4955547;29;20039;-69
2021/12/31 02:25:08;;;;;;;2.90;0.77;;;26.00;63.80;;;;;;4955377;29;20031;-69
2021/12/31 02:27:38;;;;;;;1.55;0.90;;;25.90;62.20;;;;;;4955232;29;20043;-69
2021/12/31 02:30:08;;;;;;;4.70;1.15;;;25.90;62.50;;;;;;4954129;29;20445;-69
2021/12/31 02:32:35;;;;;;;4.90;1.42;;;25.90;62.30;;;;;;4955170;29;20103;-70
2021/12/31 02:35:02;;;;;;;1.67;0.80;;;25.80;62.10;;;;;;4953809;29;20031;-69
2021/12/31 02:37:29;;;;;;;1.40;0.80;;;25.80;62.30;;;;;;4955691;29;20090;-69
2021/12/31 02:39:57;;;;;;;4.28;0.80;;;25.80;60.10;;;;;;4937995;29;20031;-69
2021/12/31 02:42:24;;;;;;;4.45;1.00;;;25.90;60.70;;;;;;4955060;28;20043;-69
2021/12/31 02:44:52;;;;;;;2.75;0.98;;;26.00;60.50;;;;;;4955141;29;20443;-69
2021/12/31 02:47:19;;;;;;;1.00;0.60;;;26.00;60.30;;;;;;4955050;29;20039;-69
2021/12/31 02:49:48;;;;;;;2.58;0.90;;;26.10;59.70;;;;;;4954691;29;20067;-69
2021/12/31 02:52:16;;;;;;;3.17;0.90;;;26.10;61.20;;;;;;4954845;29;20072;-68
2021/12/31 02:54:46;;;;;;;1.77;0.80;;;26.10;61.30;;;;;;4954917;28;20038;-68
2021/12/31 02:57:14;;;;;;;2.22;0.70;;;26.10;60.50;;;;;;4954836;29;20090;-69
2021/12/31 02:59:42;;;;;;;3.17;0.90;;;26.00;61.20;;;;;;4954666;29;20035;-68
2021/12/31 03:02:09;;;;;;;6.68;1.17;;;26.10;60.60;;;;;;4954112;28;20055;-69
2021/12/31 03:04:38;;;;;;;4.00;0.70;;;26.10;61.20;;;;;;4936678;29;20401;-69
2021/12/31 03:07:07;;;;;;;1.73;0.80;;;26.10;61.50;;;;;;4952594;29;20370;-68
2021/12/31 03:09:35;;;;;;;1.52;1.08;;;26.10;61.00;;;;;;4953891;29;20040;-69
2021/12/31 03:12:02;;;;;;;2.03;0.75;;;26.10;62.00;;;;;;4953500;29;20564;-69
2021/12/31 03:14:29;;;;;;;2.35;0.80;;;26.10;61.80;;;;;;4953656;29;20470;-68
2021/12/31 03:16:57;;;;;;;1.67;0.70;;;26.10;61.70;;;;;;4953397;29;20031;-68
2021/12/31 03:19:24;;;;;;;3.05;0.90;;;26.10;62.30;;;;;;4936666;29;20027;-69
2021/12/31 03:21:51;;;;;;;3.97;1.25;;;26.10;62.70;;;;;;4952807;28;20386;-68
2021/12/31 03:24:18;;;;;;;6.90;1.60;;;26.10;63.20;;;;;;4953543;28;20438;-69
2021/12/31 03:26:45;;;;;;;3.72;1.10;;;26.10;62.70;;;;;;4953324;29;20042;-69
2021/12/31 03:29:12;;;;;;;6.88;2.17;;;26.00;62.80;;;;;;4953370;28;20043;-69
2021/12/31 03:31:40;;;;;;;3.70;1.15;;;26.10;63.50;;;;;;4951871;28;20390;-69
2021/12/31 03:34:07;;;;;;;2.63;1.10;;;26.10;63.90;;;;;;4953313;29;20047;-69
2021/12/31 03:36:34;;;;;;;2.88;0.88;;;26.10;64.60;;;;;;4952061;29;20046;-69
2021/12/31 03:39:02;;;;;;;4.88;1.25;;;26.00;63.70;;;;;;4952990;29;20043;-69
2021/12/31 03:41:29;;;;;;;4.68;1.42;;;26.00;63.50;;;;;;4953024;29;20027;-68
2021/12/31 03:43:56;;;;;;;2.28;0.88;;;26.00;62.90;;;;;;4952015;28;20402;-69
2021/12/31 03:46:23;;;;;;;3.40;1.00;;;26.00;64.50;;;;;;4953181;29;20043;-69
2021/12/31 03:48:50;;;;;;;3.15;1.08;;;26.00;64.50;;;;;;4953049;28;20114;-69
2021/12/31 03:51:17;;;;;;;5.97;1.10;;;26.00;65.20;;;;;;4952910;29;20509;-69
2021/12/31 03:53:45;;;;;;;4.55;1.20;;;26.00;64.10;;;;;;4953091;29;20502;-70
2021/12/31 03:56:12;;;;;;;3.30;1.00;;;26.00;65.30;;;;;;4953049;28;20059;-69
2021/12/31 03:58:39;;;;;;;3.95;1.20;;;25.90;64.70;;;;;;4951612;29;20032;-69
2021/12/31 04:01:08;;;;;;;3.28;0.97;;;25.90;65.50;;;;;;4937271;28;2427943;-67
2021/12/31 04:03:36;;;;;;;4.38;0.98;;;25.90;65.70;;;;;;4953536;29;20043;-69
2021/12/31 04:06:03;;;;;;;4.22;1.23;;;25.90;65.20;;;;;;4936395;29;20035;-68
2021/12/31 04:08:30;;;;;;;3.30;1.13;;;25.80;64.60;;;;;;4952345;29;20043;-69
2021/12/31 04:10:57;;;;;;;4.90;1.30;;;25.80;64.90;;;;;;4953505;29;20023;-68
2021/12/31 04:13:24;;;;;;;7.10;1.42;;;25.80;65.50;;;;;;4953469;29;20098;-68
2021/12/31 04:15:51;;;;;;;4.63;1.10;;;25.70;64.80;;;;;;4953564;29;20043;-68
2021/12/31 04:18:18;;;;;;;5.78;1.25;;;25.80;65.00;;;;;;4953792;28;20031;-68
2021/12/31 04:20:48;;;;;;;4.47;1.10;;;25.80;64.10;;;;;;4936361;29;20035;-68
2021/12/31 04:23:28;;;;;;;4.15;1.25;;;25.80;64.20;;;;;;4953351;29;20513;-68
2021/12/31 04:25:56;;;;;;;9.48;1.50;;;25.80;64.50;;;;;;4953508;29;20470;-68
2021/12/31 04:28:23;;;;;;;3.83;1.20;;;25.80;63.80;;;;;;4953304;29;20391;-68
2021/12/31 04:30:50;;;;;;;4.53;1.30;;;25.80;64.80;;;;;;4953538;29;20110;-69
2021/12/31 04:33:17;;;;;;;5.10;1.40;;;25.90;66.30;;;;;;4955825;28;20047;-69
2021/12/31 04:35:45;;;;;;;8.05;3.42;;;25.90;66.70;;;;;;4956221;29;20520;-68
2021/12/31 04:38:12;;;;;;;6.90;1.60;;;25.90;66.20;;;;;;4940405;29;20039;-68
2021/12/31 04:40:39;;;;;;;4.90;1.63;;;25.90;64.90;;;;;;4957317;29;20027;-68
2021/12/31 04:43:07;;;;;;;8.30;1.88;;;25.90;65.00;;;;;;4957280;29;20041;-69
2021/12/31 04:45:34;;;;;;;4.43;1.55;;;25.80;65.00;;;;;;4957300;29;20490;-69
2021/12/31 04:48:01;;;;;;;7.03;1.60;;;25.80;65.30;;;;;;4957064;29;20111;-69
2021/12/31 04:50:29;;;;;;;7.85;1.20;;;25.80;63.80;;;;;;4957097;29;20043;-68
2021/12/31 04:52:56;;;;;;;8.98;1.60;;;25.80;64.80;;;;;;4956910;29;20082;-71
2021/12/31 04:55:23;;;;;;;7.40;1.70;;;25.80;65.50;;;;;;4957379;29;20047;-68
2021/12/31 04:57:50;;;;;;;3.55;1.23;;;25.80;65.00;;;;;;4957293;29;20086;-68
2021/12/31 05:00:18;;;;;;;6.07;1.30;;;25.80;64.60;;;;;;4957106;29;20398;-68
2021/12/31 05:02:45;;;;;;;6.18;1.65;;;25.90;63.80;;;;;;4956692;28;20062;-68
2021/12/31 05:05:12;;;;;;;5.25;1.42;;;25.80;63.80;;;;;;4956990;29;20038;-69
2021/12/31 05:07:40;;;;;;;9.68;1.58;;;25.90;63.60;;;;;;4956630;29;20039;-68
2021/12/31 05:10:07;;;;;;;4.32;1.45;;;25.80;64.20;;;;;;4956728;29;20038;-68
2021/12/31 05:12:37;;;;;;;6.15;1.40;;;25.90;64.40;;;;;;4956833;28;20447;-69
2021/12/31 05:15:09;;;;;;;5.70;1.33;;;25.90;64.30;;;;;;4956776;29;20035;-68
2021/12/31 05:17:37;;;;;;;6.78;1.40;;;25.80;64.30;;;;;;4956844;29;20122;-68
2021/12/31 05:20:05;;;;;;;5.38;1.30;;;25.80;66.00;;;;;;4955312;29;20039;-68
2021/12/31 05:22:33;;;;;;;4.45;1.60;;;25.80;65.30;;;;;;4956551;29;20031;-68
2021/12/31 05:25:00;;;;;;;4.05;1.30;;;25.80;64.70;;;;;;4956480;29;20046;-68
2021/12/31 05:27:27;;;;;;;3.45;1.00;;;25.80;64.20;;;;;;4955345;29;20039;-69
2021/12/31 05:29:54;;;;;;;6.60;1.60;;;25.80;62.30;;;;;;4956529;29;20043;-68
2021/12/31 05:32:22;;;;;;;5.85;1.48;;;25.80;64.20;;;;;;4956124;28;20082;-68
2021/12/31 05:34:49;;;;;;;5.82;1.73;;;25.80;65.00;;;;;;4955164;28;20134;-69
2021/12/31 05:37:16;;;;;;;5.13;1.30;;;25.80;63.90;;;;;;4956343;28;20039;-69
2021/12/31 05:39:44;;;;;;;4.22;1.85;;;25.80;64.30;;;;;;4939177;29;20086;-68
2021/12/31 05:42:12;;;;;;;9.55;2.20;;;25.70;63.40;;;;;;4955948;29;20039;-69
2021/12/31 05:44:39;;;;;;;4.60;1.30;;;25.70;64.90;;;;;;4955732;28;20035;-68
2021/12/31 05:47:06;;;;;;;5.45;1.38;;;25.70;65.80;;;;;;4956076;29;20162;-69
2021/12/31 05:49:34;;;;;;;2.25;1.02;;;25.70;66.10;;;;;;4956086;29;20486;-68
2021/12/31 05:52:01;;;;;;;6.03;1.45;;;25.70;65.10;;;;;;4954639;29;20521;-69
2021/12/31 05:54:28;;;;;;;5.25;1.55;;;25.70;66.40;;;;;;4956232;29;20031;-68
2021/12/31 05:56:55;;;;;;;3.40;1.20;;;25.60;67.20;;;;;;4956561;29;20043;-68
2021/12/31 05:59:23;;;;;;;5.53;1.42;;;25.70;67.10;;;;;;4956090;29;20050;-69
2021/12/31 06:01:50;;;;;;;4.25;1.33;;;25.60;66.00;;;;;;4955781;28;20421;-69
2021/12/31 06:04:17;;;;;;;4.45;1.17;;;25.60;66.40;;;;;;4955846;28;20047;-69
2021/12/31 06:06:45;;;;;;;9.05;1.50;;;25.60;66.10;;;;;;4954664;29;20164;-69
2021/12/31 06:09:13;;;;;;;8.90;1.90;;;25.60;65.70;;;;;;4955804;29;20144;-69
2021/12/31 06:11:41;;;;;;;7.95;1.77;;;25.50;66.40;;;;;;4955460;29;20054;-68
2021/12/31 06:14:10;;;;;;;8.80;1.65;;;25.50;66.90;;;;;;4954378;29;20035;-68
2021/12/31 06:16:41;;;;;;;;;;;25.50;66.10;;;;;;4954825;29;20031;-68
2021/12/31 06:19:11;;;;;;;6.68;1.55;;;25.50;66.30;;;;;;4955661;29;19910;-68
2021/12/31 06:21:42;;;;;;;10.30;1.65;;;25.50;66.30;;;;;;4955395;29;20066;-68
2021/12/31 06:24:10;;;;;;;12.02;1.80;;;25.50;65.90;;;;;;4954062;29;20031;-68
2021/12/31 06:26:37;;;;;;;6.70;2.03;;;25.40;65.90;;;;;;4938353;29;20046;-68
2021/12/31 06:29:05;;;;;;;5.75;1.58;;;25.50;66.00;;;;;;4938422;29;20405;-68
2021/12/31 06:31:32;;;;;;;6.25;1.70;;;25.40;65.10;;;;;;4955396;29;20046;-68
2021/12/31 06:33:59;;;;;;;4.78;1.60;;;25.40;65.40;;;;;;4955519;29;20037;-68
2021/12/31 06:36:26;;;;;;;6.90;1.58;;;25.40;65.60;;;;;;4955110;29;20035;-68
2021/12/31 06:38:53;;;;;;;6.60;2.35;;;25.40;65.40;;;;;;4954064;28;20134;-67
2021/12/31 06:41:20;;;;;;;4.85;1.98;;;25.40;65.20;;;;;;4955359;28;20036;-68
2021/12/31 06:43:48;;;;;;;6.88;2.40;;;25.40;65.70;;;;;;4954050;29;20040;-67
2021/12/31 06:46:15;;;;;;;6.97;1.58;;;25.40;66.40;;;;;;4955470;29;20035;-68
2021/12/31 06:48:42;;;;;;;6.80;1.55;;;25.40;66.70;;;;;;4955212;28;20379;-67
2021/12/31 06:51:10;;;;;;;4.13;1.38;;;25.30;66.30;;;;;;4953484;29;20565;-68
2021/12/31 06:53:37;;;;;;;5.32;1.60;;;25.30;65.40;;;;;;4953763;29;20093;-68
2021/12/31 06:56:04;;;;;;;7.18;1.60;;;25.30;66.40;;;;;;4954279;28;20131;-68
2021/12/31 06:58:32;;;;;;;3.72;1.35;;;25.30;67.60;;;;;;4954919;29;20039;-68
2021/12/31 07:00:59;;;;;;;6.03;1.60;;;25.20;67.30;;;;;;4954891;29;20038;-67
2021/12/31 07:03:26;;;;;;;5.65;1.27;;;25.20;67.20;;;;;;4954954;28;20071;-68
2021/12/31 07:05:53;;;;;;;4.70;1.23;;;25.20;66.60;;;;;;4954798;29;20386;-68
2021/12/31 07:08:21;;;;;;;6.53;1.88;;;25.20;66.90;;;;;;4954867;29;20035;-67
2021/12/31 07:10:48;;;;;;;6.47;1.60;;;25.20;66.60;;;;;;4954857;29;20027;-68
2021/12/31 07:13:15;;;;;;;8.20;1.70;;;25.10;66.50;;;;;;4937502;29;20402;-68
2021/12/31 07:15:44;;;;;;;5.35;1.30;;;25.10;67.10;;;;;;4954911;29;20402;-68
2021/12/31 07:18:11;;;;;;;5.87;1.90;;;25.10;67.50;;;;;;4954373;29;20383;-68
2021/12/31 07:20:39;;;;;;;9.13;2.75;;;25.10;68.20;;;;;;4936979;29;20281;-68
2021/12/31 07:23:11;;;;;;;6.78;1.80;;;25.00;67.70;;;;;;4954763;29;20039;-67
2021/12/31 07:25:39;;;;;;;6.80;2.20;;;25.00;67.70;;;;;;4954633;29;20031;-67
2021/12/31 07:28:07;;;;;;;12.43;2.58;;;24.90;66.80;;;;;;4954589;29;20130;-67
2021/12/31 07:30:34;;;;;;;6.18;1.92;;;24.90;67.20;;;;;;4954571;29;20031;-67
2021/12/31 07:33:01;;;;;;;7.03;1.60;;;24.90;66.60;;;;;;4953590;29;20163;-67
2021/12/31 07:35:29;;;;;;;4.55;1.17;;;24.90;65.80;;;;;;4954615;29;20118;-67
2021/12/31 07:37:57;;;;;;;5.05;1.38;;;24.80;65.90;;;;;;4953912;29;20043;-67
2021/12/31 07:40:45;;;;;;;3.33;1.17;;;24.80;65.70;;;;;;4952552;29;20027;-67
2021/12/31 07:43:11;;;;;;;4.03;1.35;;;24.80;66.10;;;;;;4953352;29;20039;-67
2021/12/31 07:45:39;;;;;;;5.97;1.60;;;24.80;66.80;;;;;;4952496;29;20051;-67
2021/12/31 07:48:06;;;;;;;6.85;1.55;;;24.80;66.00;;;;;;4953667;29;20051;-67
2021/12/31 07:50:33;;;;;;;7.72;2.65;;;24.80;66.70;;;;;;4953934;28;20102;-67
2021/12/31 07:53:01;;;;;;;10.88;3.83;;;24.80;66.80;;;;;;4954067;29;20053;-67
2021/12/31 07:55:28;;;;;;;10.77;2.45;;;24.80;66.90;;;;;;4953840;29;20414;-67
2021/12/31 07:57:55;;;;;;;13.85;7.88;;;24.80;66.90;;;;;;4953623;29;20058;-67
2021/12/31 08:00:22;;;;;;;11.48;3.67;;;24.80;67.00;;;;;;4953707;29;20036;-67
2021/12/31 08:02:50;;;;;;;7.00;2.00;;;24.70;67.20;;;;;;4953600;28;20062;-67
2021/12/31 08:05:17;;;;;;;14.48;4.55;;;24.70;67.20;;;;;;4953612;28;20410;-67
2021/12/31 08:07:44;;;;;;;7.78;2.58;;;24.70;67.50;;;;;;4953436;28;20043;-67
2021/12/31 08:10:11;;;;;;;8.82;2.25;;;24.70;67.60;;;;;;4953238;29;20046;-67
2021/12/31 08:12:38;;;;;;;9.52;3.78;;;24.70;67.90;;;;;;4953530;28;20054;-67
2021/12/31 08:15:06;;;;;;;7.05;2.20;;;24.70;68.00;;;;;;4953555;29;20039;-67
2021/12/31 08:17:33;;;;;;;9.82;3.63;;;24.60;68.50;;;;;;4953427;29;20031;-67
2021/12/31 08:20:00;;;;;;;14.63;2.65;;;24.60;68.70;;;;;;4935954;29;20039;-67
2021/12/31 08:22:27;;;;;;;12.07;3.53;;;24.60;68.70;;;;;;4953391;29;20173;-67
2021/12/31 08:24:55;;;;;;;18.65;3.85;;;24.60;68.30;;;;;;4953365;29;20098;-67
2021/12/31 08:27:22;;;;;;;11.27;2.90;;;24.60;68.10;;;;;;4953655;28;20043;-67
2021/12/31 08:29:49;;;;;;;7.03;1.60;;;24.50;68.10;;;;;;4953609;29;20024;-67
2021/12/31 08:32:16;;;;;;;8.15;2.63;;;24.60;68.50;;;;;;4953540;29;20469;-67
2021/12/31 08:34:43;;;;;;;5.72;2.45;;;24.50;68.90;;;;;;4953464;29;20398;-67
2021/12/31 08:37:10;;;;;;;7.35;2.63;;;24.50;69.10;;;;;;4953462;28;20043;-67
2021/12/31 08:39:38;;;;;;;12.57;3.05;;;24.50;69.10;;;;;;4953410;29;20027;-67
2021/12/31 08:42:05;;;;;;;6.05;1.83;;;24.50;69.10;;;;;;4953630;28;20075;-67
2021/12/31 08:44:33;;;;;;;9.77;1.65;;;24.50;69.10;;;;;;4952558;29;20027;-68
2021/12/31 08:47:00;;;;;;;6.20;1.65;;;24.40;69.20;;;;;;4951943;29;20035;-67
2021/12/31 08:49:27;;;;;;;8.15;1.83;;;24.40;69.40;;;;;;4953335;29;20482;-67
2021/12/31 08:51:54;;;;;;;7.90;1.58;;;24.40;69.70;;;;;;4953084;29;20494;-67
2021/12/31 08:54:21;;;;;;;9.68;2.00;;;24.30;69.90;;;;;;4953324;29;20443;-67
2021/12/31 08:56:48;;;;;;;9.85;1.75;;;24.30;70.10;;;;;;4936118;29;20486;-67
2021/12/31 08:59:19;;;;;;;10.25;2.08;;;24.30;70.40;;;;;;4953339;29;20110;-68
2021/12/31 09:01:46;;;;;;;8.20;1.95;;;24.30;70.40;;;;;;4953129;28;20043;-68
2021/12/31 09:04:13;;;;;;;6.75;1.70;;;24.30;70.20;;;;;;4953353;29;20490;-68
2021/12/31 09:06:40;;;;;;;8.10;1.77;;;24.20;70.30;;;;;;4953267;29;20043;-68
2021/12/31 09:09:07;;;;;;;5.93;1.77;;;24.20;70.20;;;;;;4953292;29;20040;-67
2021/12/31 09:11:35;;;;;;;7.18;1.90;;;24.20;69.70;;;;;;4953209;29;20047;-68
2021/12/31 09:14:02;;;;;;;7.00;1.52;;;24.20;69.70;;;;;;4952917;29;20114;-68
2021/12/31 09:16:29;;;;;;;10.85;2.13;;;24.20;69.30;;;;;;4953214;29;20517;-68
2021/12/31 09:18:56;;;;;;;7.43;1.85;;;24.20;69.40;;;;;;4937481;29;20062;-68
2021/12/31 09:21:24;;;;;;;7.38;1.67;;;24.10;69.40;;;;;;4956690;29;20027;-68
2021/12/31 09:23:51;;;;;;;6.45;1.98;;;24.10;69.30;;;;;;4956822;29;20031;-68
2021/12/31 09:26:18;;;;;;;8.65;1.65;;;24.10;69.30;;;;;;4956699;29;20031;-68
2021/12/31 09:28:45;;;;;;;5.53;1.90;;;24.10;69.50;;;;;;4956234;29;20035;-68
2021/12/31 09:31:13;;;;;;;7.50;1.70;;;24.10;69.60;;;;;;4955093;28;20393;-67
2021/12/31 09:33:40;;;;;;;6.07;2.05;;;24.00;69.80;;;;;;4939068;29;20046;-68
2021/12/31 09:36:07;;;;;;;10.05;2.78;;;24.00;69.60;;;;;;4956211;29;20058;-68
2021/12/31 09:38:35;;;;;;;11.95;1.73;;;24.00;69.30;;;;;;4956096;29;20054;-68
2021/12/31 09:41:02;;;;;;;8.25;2.20;;;24.00;69.40;;;;;;4955833;28;20046;-68
2021/12/31 09:43:29;;;;;;;10.00;1.92;;;24.00;69.30;;;;;;4956450;29;20454;-68
2021/12/31 09:45:56;;;;;;;11.60;2.00;;;24.00;69.50;;;;;;4956125;29;20053;-68
2021/12/31 09:48:24;;;;;;;11.10;1.90;;;24.00;69.60;;;;;;4956058;29;20189;-68
2021/12/31 09:50:55;;;;;;;8.63;1.98;;;24.00;70.00;;;;;;4954506;29;20047;-68
2021/12/31 09:53:23;;;;;;;7.32;1.90;;;24.00;69.90;;;;;;4955949;29;20466;-68
2021/12/31 09:55:55;;;;;;;10.55;2.13;;;24.00;70.00;;;;;;4955999;29;20042;-68
2021/12/31 09:58:26;;;;;;;9.77;2.53;;;24.00;70.10;;;;;;4956258;29;20541;-68
2021/12/31 10:00:57;;;;;;;8.43;2.17;;;24.00;70.10;;;;;;4955901;29;20031;-67
2021/12/31 10:03:25;;;;;;;10.85;2.88;;;24.00;70.20;;;;;;4955511;28;20066;-68
2021/12/31 10:05:54;;;;;;;9.57;1.90;;;24.00;70.30;;;;;;4938469;29;20501;-67
2021/12/31 10:08:23;;;;;;;8.50;2.35;;;24.00;70.30;;;;;;4938588;29;20122;-68
2021/12/31 10:11:13;;;;;;;6.10;1.75;;;24.00;70.40;;;;;;4955418;29;20382;-68
2021/12/31 10:13:43;;;;;;;;;;;24.00;70.80;;;;;;4956090;29;20110;-68
2021/12/31 10:16:39;;;;;;;17.75;6.82;;;24.00;71.10;;;;;;4955557;29;20353;-68
2021/12/31 10:19:20;;;;;;;13.05;3.67;;;24.00;71.10;;;;;;4943507;29;20078;-68
2021/12/31 10:21:50;;;;;;;8.23;2.50;;;23.90;71.30;;;;;;4955290;29;20039;-67
2021/12/31 10:24:33;;;;;;;10.40;2.60;;;23.90;71.10;;;;;;4938388;29;20127;-67
2021/12/31 10:27:20;;;;;;;11.32;2.83;;;23.90;71.00;;;;;;4956301;29;20106;-67
2021/12/31 10:29:57;;;;;;;9.30;2.58;;;23.90;71.00;;;;;;4955182;28;20434;-68
2021/12/31 10:32:32;;;;;;;18.92;6.43;;;23.90;70.70;;;;;;4955259;28;20051;-68
2021/12/31 10:35:18;;;;;;;18.15;6.80;;;23.80;70.80;;;;;;4955007;29;20051;-68
2021/12/31 10:37:51;;;;;;;12.13;5.00;;;23.80;70.90;;;;;;4955315;29;20458;-68
2021/12/31 10:40:36;;;;;;;11.02;3.63;;;23.80;71.10;;;;;;4954903;29;20031;-68
2021/12/31 10:43:23;;;;;;;13.60;3.25;;;23.80;71.30;;;;;;4955158;29;20040;-68
2021/12/31 10:46:14;;;;;;;10.20;3.20;;;23.80;71.50;;;;;;4955205;29;20454;-67
2021/12/31 10:48:46;;;;;;;10.18;3.50;;;23.80;71.80;;;;;;4938016;29;20062;-67
2021/12/31 10:51:18;;;;;;;13.40;4.93;;;23.80;72.10;;;;;;4954828;29;20035;-67
2021/12/31 10:53:54;;;;;;;13.38;3.40;;;23.80;72.40;;;;;;4953923;29;20118;-67
2021/12/31 10:56:22;;;;;;;6.72;2.30;;;23.80;72.60;;;;;;4954769;29;20533;-68
2021/12/31 10:58:59;;;;;;;10.20;2.17;;;23.80;73.00;;;;;;4937590;29;20050;-67
2021/12/31 11:01:26;;;;;;;7.75;1.73;;;23.90;73.10;;;;;;4953123;28;20098;-67
2021/12/31 11:03:53;;;;;;;12.88;4.03;;;23.80;73.20;;;;;;4937817;29;20039;-68
2021/12/31 11:06:22;;;;;;;11.18;2.78;;;23.80;73.50;;;;;;4953627;29;20389;-67
2021/12/31 11:08:50;;;;;;;12.68;2.70;;;23.80;73.70;;;;;;4937739;29;20447;-67
2021/12/31 11:11:19;;;;;;;6.07;2.13;;;23.80;73.90;;;;;;4937823;29;20163;-68
2021/12/31 11:13:46;;;;;;;12.45;2.72;;;23.80;74.00;;;;;;4953678;29;20402;-68
2021/12/31 11:16:15;;;;;;;10.85;1.98;;;23.80;73.90;;;;;;4954852;29;20042;-67
2021/12/31 11:18:42;;;;;;;7.97;2.15;;;23.80;73.60;;;;;;4937549;29;20039;-68
2021/12/31 11:21:09;;;;;;;14.88;2.50;;;23.70;73.50;;;;;;4937321;29;20027;-68
2021/12/31 11:23:36;;;;;;;8.88;2.08;;;23.70;73.30;;;;;;4954714;29;20038;-68
2021/12/31 11:26:05;;;;;;;9.10;2.15;;;23.70;73.30;;;;;;4954704;29;20389;-67
2021/12/31 11:28:34;;;;;;;8.60;1.70;;;23.70;72.60;;;;;;4953066;28;20047;-67
2021/12/31 11:31:19;;;;;;;6.57;1.92;;;23.70;72.60;;;;;;4954241;29;20023;-68
2021/12/31 11:34:10;;;;;;;12.50;2.42;;;23.60;72.40;;;;;;4954106;29;20066;-68
2021/12/31 11:36:54;;;;;;;11.82;2.50;;;23.70;72.50;;;;;;4954021;29;20031;-67
2021/12/31 11:39:30;;;;;;;7.60;2.00;;;23.70;72.50;;;;;;4954279;28;20035;-68
2021/12/31 11:42:00;;;;;;;8.57;2.05;;;23.70;72.50;;;;;;4953800;28;20395;-68
2021/12/31 11:44:28;;;;;;;13.85;2.63;;;23.60;72.40;;;;;;4954289;29;20334;-67
2021/12/31 11:47:28;;;;;;;7.90;2.08;;;23.60;72.00;;;;;;4936884;29;20031;-68
2021/12/31 11:50:29;;;;;;;11.57;2.30;;;23.60;72.10;;;;;;4922230;29;20405;-68
2021/12/31 11:53:03;;;;;;;13.52;2.17;;;23.60;72.20;;;;;;4953943;29;20365;-68
2021/12/31 11:55:42;;;;;;;7.15;1.80;;;23.60;72.30;;;;;;4952732;29;20059;-68
2021/12/31 11:58:40;;;;;;;10.35;2.92;;;23.70;72.00;;;;;;4952757;29;20043;-67
2021/12/31 12:01:37;;;;;;;10.73;2.08;;;23.60;71.70;;;;;;4925099;28;20039;-67
2021/12/31 12:04:26;;;;;;;11.30;2.20;;;23.60;71.70;;;;;;4953545;29;20166;-67
2021/12/31 12:07:03;;;;;;;8.48;2.20;;;23.60;71.30;;;;;;4953532;29;20058;-68
2021/12/31 12:09:36;;;;;;;10.10;1.63;;;23.60;71.40;;;;;;4953605;29;20173;-68
2021/12/31 12:12:35;;;;;;;9.40;1.85;;;23.60;71.60;;;;;;4953646;29;20066;-68
2021/12/31 12:15:24;;;;;;;10.98;2.42;;;23.60;71.60;;;;;;4950906;29;20045;-67
2021/12/31 12:17:51;;;;;;;10.07;2.03;;;23.60;71.80;;;;;;4952163;29;20051;-67
2021/12/31 12:20:19;;;;;;;9.98;1.65;;;23.50;71.70;;;;;;4952116;29;20038;-67
2021/12/31 12:22:56;;;;;;;11.00;2.30;;;23.60;71.90;;;;;;4936431;29;20035;-67
2021/12/31 12:25:28;;;;;;;11.27;2.63;;;23.60;71.90;;;;;;4953858;29;20042;-68
2021/12/31 12:28:11;;;;;;;9.88;2.10;;;23.50;72.00;;;;;;4953766;28;20042;-67
2021/12/31 12:30:46;;;;;;;6.72;1.65;;;23.50;71.90;;;;;;4953282;29;20508;-67
2021/12/31 12:33:19;;;;;;;12.70;2.20;;;23.50;71.60;;;;;;4953361;28;20466;-67
2021/12/31 12:35:48;;;;;;;9.10;2.42;;;23.50;71.70;;;;;;4953473;29;20385;-67
2021/12/31 12:38:26;;;;;;;9.90;2.15;;;23.50;71.30;;;;;;4953382;29;20031;-67
2021/12/31 12:40:56;;;;;;;12.07;2.60;;;23.40;71.40;;;;;;4953473;28;20389;-67
2021/12/31 12:43:24;;;;;;;9.40;1.90;;;23.40;71.50;;;;;;4953445;29;20035;-67
2021/12/31 12:45:56;;;;;;;10.50;2.25;;;23.40;71.40;;;;;;4953478;29;20047;-67
2021/12/31 12:48:42;;;;;;;8.75;2.50;;;23.40;71.40;;;;;;4952220;29;20118;-67
2021/12/31 12:51:14;;;;;;;12.77;2.17;;;23.40;71.60;;;;;;4936390;29;20343;-67
2021/12/31 12:53:43;;;;;;;10.52;1.90;;;23.40;71.70;;;;;;4954046;28;20094;-67
2021/12/31 12:56:12;;;;;;;8.10;1.65;;;23.40;71.50;;;;;;4955874;29;20046;-67
2021/12/31 12:58:55;;;;;;;7.07;1.95;;;23.40;71.80;;;;;;4939928;29;20035;-68
2021/12/31 13:01:41;;;;;;;14.63;2.55;;;23.40;71.90;;;;;;4955965;28;20096;-67